createdAt,value
2018-11-11T00:08:34.170Z,11.50
2018-11-11T00:18:37.444Z,11.50
2018-11-11T00:28:40.854Z,11.50
2018-11-11T00:38:43.987Z,11.50
2018-11-11T00:48:47.272Z,11.50
2018-11-11T00:58:50.509Z,11.50
2018-11-11T01:08:53.748Z,11.40
2018-11-11T01:18:57.300Z,11.40
2018-11-11T01:29:00.539Z,11.30
2018-11-11T01:39:04.273Z,11.30
2018-11-11T01:49:07.979Z,11.20
2018-11-11T01:59:11.517Z,11.20
2018-11-11T02:09:14.753Z,11.20
2018-11-11T02:19:18.031Z,11.10
2018-11-11T02:29:21.272Z,11.00
2018-11-11T02:39:24.499Z,11.00
2018-11-11T02:49:27.812Z,11.00
2018-11-11T02:59:31.061Z,11.00
2018-11-11T03:09:34.415Z,11.10
2018-11-11T03:19:37.668Z,11.10
2018-11-11T03:29:41.047Z,11.10
2018-11-11T03:39:44.293Z,11.10
2018-11-11T03:49:47.528Z,11.10
2018-11-11T03:59:50.818Z,11.00
2018-11-11T04:09:54.052Z,11.00
2018-11-11T04:19:57.311Z,11.00
2018-11-11T04:30:00.569Z,11.00
2018-11-11T04:40:04.133Z,11.00
2018-11-11T04:50:08.922Z,10.90
2018-11-11T05:00:13.297Z,10.80
2018-11-11T05:10:16.535Z,10.80
2018-11-11T05:20:19.792Z,10.70
2018-11-11T05:30:23.064Z,10.70
2018-11-11T05:40:26.316Z,10.70
2018-11-11T05:50:29.556Z,10.70
2018-11-11T06:00:33.132Z,10.50
2018-11-11T06:10:36.375Z,10.50
2018-11-11T06:20:39.600Z,10.40
2018-11-11T06:30:43.144Z,10.40
2018-11-11T06:40:46.391Z,10.40
2018-11-11T06:50:49.632Z,10.50
2018-11-11T07:00:52.876Z,10.50
2018-11-11T07:10:56.191Z,10.50
2018-11-11T07:20:59.428Z,10.60
2018-11-11T07:31:02.681Z,10.60
2018-11-11T07:41:06.032Z,10.60
2018-11-11T07:51:09.788Z,10.70
2018-11-11T08:01:13.230Z,10.70
2018-11-11T08:11:28.109Z,10.70
2018-11-11T08:21:31.585Z,10.70
2018-11-11T08:31:34.963Z,10.60
2018-11-11T08:41:39.985Z,10.70
2018-11-11T08:51:43.448Z,10.90
2018-11-11T09:01:46.835Z,11.00
2018-11-11T09:11:50.120Z,11.20
2018-11-11T09:21:53.496Z,11.40
2018-11-11T09:31:57.444Z,11.80
2018-11-11T09:42:00.769Z,12.10
2018-11-11T09:52:04.136Z,12.40
2018-11-11T10:02:07.481Z,12.60
2018-11-11T10:12:17.968Z,12.90
2018-11-11T10:23:01.530Z,13.20
2018-11-11T10:33:27.805Z,13.40
2018-11-11T10:44:02.508Z,13.70
2018-11-11T10:54:06.479Z,14.20
2018-11-11T11:04:09.712Z,14.40
2018-11-11T11:14:13.865Z,14.70
2018-11-11T11:24:17.112Z,15.00
2018-11-11T11:34:20.492Z,15.40
2018-11-11T11:44:23.829Z,15.90
2018-11-11T11:54:27.188Z,16.20
2018-11-11T12:04:30.520Z,16.60
2018-11-11T12:14:33.864Z,16.90
2018-11-11T12:24:37.488Z,16.90
2018-11-11T12:34:40.840Z,16.90
2018-11-11T12:44:44.316Z,16.90
2018-11-11T12:54:47.522Z,16.90
2018-11-11T13:04:50.950Z,16.80
2018-11-11T13:20:32.435Z,16.90
2018-11-11T13:30:35.776Z,16.90
2018-11-11T13:40:39.153Z,16.90
2018-11-11T13:50:42.460Z,16.90
2018-11-11T14:00:45.839Z,16.70
2018-11-11T14:10:49.202Z,16.80
2018-11-11T14:20:52.512Z,16.90
2018-11-11T14:30:55.836Z,17.00
2018-11-11T14:40:59.188Z,16.90
2018-11-11T14:51:02.556Z,16.70
2018-11-11T15:01:06.592Z,16.40
2018-11-11T15:11:10.613Z,16.00
2018-11-11T15:21:13.844Z,15.80
2018-11-11T15:31:17.213Z,15.50
2018-11-11T15:41:20.341Z,15.30
2018-11-11T15:51:23.575Z,15.00
2018-11-11T16:01:26.785Z,14.70
2018-11-11T16:11:30.071Z,14.40
2018-11-11T16:21:33.309Z,14.20
2018-11-11T16:31:36.616Z,14.10
2018-11-11T16:41:40.145Z,14.00
2018-11-11T16:51:43.408Z,13.80
2018-11-11T17:01:46.636Z,13.80
2018-11-11T17:11:49.893Z,13.60
2018-11-11T17:21:53.289Z,13.50
2018-11-11T17:31:56.375Z,13.50
2018-11-11T17:41:59.612Z,13.30
2018-11-11T17:52:02.852Z,13.30
2018-11-11T18:02:06.429Z,13.30
2018-11-11T18:12:10.259Z,13.20
2018-11-11T18:22:13.520Z,13.00
2018-11-11T18:32:16.741Z,12.80
2018-11-11T18:42:20.038Z,12.60
2018-11-11T18:52:23.450Z,12.40
2018-11-11T19:02:26.672Z,12.30
2018-11-11T19:12:30.161Z,12.40
2018-11-11T19:22:33.424Z,12.20
2018-11-11T19:32:37.304Z,12.10
2018-11-11T19:42:41.238Z,11.90
2018-11-11T19:52:46.118Z,11.70
2018-11-11T20:02:50.350Z,11.60
2018-11-11T20:12:53.876Z,11.60
2018-11-11T20:22:57.192Z,11.60
2018-11-11T20:33:00.546Z,11.70
2018-11-11T20:43:03.811Z,11.50
2018-11-11T20:53:07.373Z,11.50
2018-11-11T21:03:10.668Z,11.50
2018-11-11T21:13:13.925Z,11.40
2018-11-11T21:23:17.156Z,11.30
2018-11-11T21:33:20.401Z,11.30
2018-11-11T21:43:23.645Z,11.20
2018-11-11T21:53:30.908Z,11.10
2018-11-11T22:03:34.325Z,11.00
2018-11-11T22:13:37.672Z,11.10
2018-11-11T22:23:41.004Z,11.00
2018-11-11T22:33:44.333Z,11.00
2018-11-11T22:43:47.692Z,11.00
2018-11-11T22:53:51.052Z,11.00
2018-11-11T23:03:54.716Z,11.10
2018-11-11T23:13:58.116Z,11.20
2018-11-11T23:24:01.393Z,11.20
2018-11-11T23:34:04.733Z,11.30
2018-11-11T23:44:08.979Z,11.40
2018-11-11T23:54:12.344Z,11.40
